Terminal Aerodrome Forecast
Issued by NWS

Home | Current Version | Previous Version | Graphics & Text | Print | Product List | Glossary On
Versions: 1 2 3 4 5 6 7 8 9 10 11 12 13 14 15 16 17 18 19 20 21 22 23 24 25 26 27
493
FTUS43 KLSX 221720
TAFSUS
TAF
KSUS 221720Z 2218/2318 31012KT P6SM VCSH OVC008
      TEMPO 2218/2219 2SM -RA BR
     FM222000 32012KT P6SM -SHRA OVC015
     FM222200 32009KT P6SM VCSH BKN040
     FM230300 32005KT P6SM BKN060
     FM230800 VRB05KT P6SM SCT110=

USA.gov is the U.S. government's official web portal to all federal, state and local government web resources and services.